sensor_id;sensor_type;location;lat;lon;timestamp;temperature;humidity
39189;DHT22;24915;50.858;4.376;2022-11-04T00:01:58;10.30;99.90
39189;DHT22;24915;50.858;4.376;2022-11-04T00:04:25;10.20;99.90
39189;DHT22;24915;50.858;4.376;2022-11-04T00:06:52;10.20;99.90
39189;DHT22;24915;50.858;4.376;2022-11-04T00:09:22;10.20;99.90
39189;DHT22;24915;50.858;4.376;2022-11-04T00:11:49;10.20;99.90
39189;DHT22;24915;50.858;4.376;2022-11-04T00:14:34;10.10;99.90
39189;DHT22;24915;50.858;4.376;2022-11-04T00:17:00;10.20;99.90
39189;DHT22;24915;50.858;4.376;2022-11-04T00:19:45;10.10;99.90
39189;DHT22;24915;50.858;4.376;2022-11-04T00:22:30;10.10;99.90
39189;DHT22;24915;50.858;4.376;2022-11-04T00:25:14;10.10;99.90
39189;DHT22;24915;50.858;4.376;2022-11-04T00:28:13;10.10;99.90
39189;DHT22;24915;50.858;4.376;2022-11-04T00:30:59;10.10;99.90
39189;DHT22;24915;50.858;4.376;2022-11-04T00:33:48;10.10;99.90
39189;DHT22;24915;50.858;4.376;2022-11-04T00:36:14;10.10;99.90
39189;DHT22;24915;50.858;4.376;2022-11-04T00:38:40;10.10;99.90
39189;DHT22;24915;50.858;4.376;2022-11-04T00:41:05;10.10;99.90
39189;DHT22;24915;50.858;4.376;2022-11-04T00:43:51;10.10;99.90
39189;DHT22;24915;50.858;4.376;2022-11-04T00:46:17;10.20;99.90
39189;DHT22;24915;50.858;4.376;2022-11-04T00:48:42;10.10;99.90
39189;DHT22;24915;50.858;4.376;2022-11-04T00:51:08;10.20;99.90
39189;DHT22;24915;50.858;4.376;2022-11-04T00:53:34;10.20;99.90
39189;DHT22;24915;50.858;4.376;2022-11-04T00:55:59;10.20;99.90
39189;DHT22;24915;50.858;4.376;2022-11-04T00:58:26;10.20;99.90
39189;DHT22;24915;50.858;4.376;2022-11-04T01:00:52;10.20;99.90
39189;DHT22;24915;50.858;4.376;2022-11-04T01:03:18;10.20;99.90
39189;DHT22;24915;50.858;4.376;2022-11-04T01:05:43;10.20;99.90
39189;DHT22;24915;50.858;4.376;2022-11-04T01:08:09;10.20;99.90
39189;DHT22;24915;50.858;4.376;2022-11-04T01:10:35;10.20;99.90
39189;DHT22;24915;50.858;4.376;2022-11-04T01:13:09;10.20;99.90
39189;DHT22;24915;50.858;4.376;2022-11-04T01:15:36;10.20;99.90
39189;DHT22;24915;50.858;4.376;2022-11-04T01:18:02;10.10;99.90
39189;DHT22;24915;50.858;4.376;2022-11-04T01:20:28;10.10;99.90
39189;DHT22;24915;50.858;4.376;2022-11-04T01:22:53;10.10;99.90
39189;DHT22;24915;50.858;4.376;2022-11-04T01:25:19;10.10;99.90
39189;DHT22;24915;50.858;4.376;2022-11-04T01:27:45;10.10;99.90
39189;DHT22;24915;50.858;4.376;2022-11-04T01:30:11;10.10;99.90
39189;DHT22;24915;50.858;4.376;2022-11-04T01:32:36;10.10;99.90
39189;DHT22;24915;50.858;4.376;2022-11-04T01:35:02;10.10;99.90
39189;DHT22;24915;50.858;4.376;2022-11-04T01:37:29;10.10;99.90
39189;DHT22;24915;50.858;4.376;2022-11-04T01:39:54;10.10;99.90
39189;DHT22;24915;50.858;4.376;2022-11-04T01:42:21;10.10;99.90
39189;DHT22;24915;50.858;4.376;2022-11-04T01:44:50;10.10;99.90
39189;DHT22;24915;50.858;4.376;2022-11-04T01:47:19;10.10;99.90
39189;DHT22;24915;50.858;4.376;2022-11-04T01:49:50;10.10;99.90
39189;DHT22;24915;50.858;4.376;2022-11-04T01:52:34;10.10;99.90
39189;DHT22;24915;50.858;4.376;2022-11-04T01:55:05;10.10;99.90
39189;DHT22;24915;50.858;4.376;2022-11-04T01:57:39;10.00;99.90
39189;DHT22;24915;50.858;4.376;2022-11-04T02:00:07;10.00;99.90
39189;DHT22;24915;50.858;4.376;2022-11-04T02:02:38;10.00;99.90
39189;DHT22;24915;50.858;4.376;2022-11-04T02:05:05;10.00;99.90
39189;DHT22;24915;50.858;4.376;2022-11-04T02:07:31;10.00;99.90
39189;DHT22;24915;50.858;4.376;2022-11-04T02:09:57;9.90;99.90
39189;DHT22;24915;50.858;4.376;2022-11-04T02:12:22;10.00;99.90
39189;DHT22;24915;50.858;4.376;2022-11-04T02:15:07;9.90;99.90
39189;DHT22;24915;50.858;4.376;2022-11-04T02:17:38;9.90;99.90
39189;DHT22;24915;50.858;4.376;2022-11-04T02:26:05;9.80;99.90
39189;DHT22;24915;50.858;4.376;2022-11-04T02:28:42;9.80;99.90
39189;DHT22;24915;50.858;4.376;2022-11-04T02:34:51;9.80;99.90
39189;DHT22;24915;50.858;4.376;2022-11-04T02:39:50;9.90;99.90
39189;DHT22;24915;50.858;4.376;2022-11-04T02:42:37;9.90;99.90
39189;DHT22;24915;50.858;4.376;2022-11-04T02:45:18;9.90;99.90
39189;DHT22;24915;50.858;4.376;2022-11-04T02:53:43;9.90;99.90
39189;DHT22;24915;50.858;4.376;2022-11-04T02:56:10;9.90;99.90
39189;DHT22;24915;50.858;4.376;2022-11-04T02:58:44;9.90;99.90
39189;DHT22;24915;50.858;4.376;2022-11-04T03:01:13;10.00;99.90
39189;DHT22;24915;50.858;4.376;2022-11-04T03:03:51;10.00;99.90
39189;DHT22;24915;50.858;4.376;2022-11-04T03:06:22;10.00;99.90
39189;DHT22;24915;50.858;4.376;2022-11-04T03:08:51;10.00;99.90
39189;DHT22;24915;50.858;4.376;2022-11-04T03:11:21;10.00;99.90
39189;DHT22;24915;50.858;4.376;2022-11-04T03:14:06;10.00;99.90
39189;DHT22;24915;50.858;4.376;2022-11-04T03:16:39;10.00;99.90
39189;DHT22;24915;50.858;4.376;2022-11-04T03:19:17;10.00;99.90
39189;DHT22;24915;50.858;4.376;2022-11-04T03:22:14;10.00;99.90
39189;DHT22;24915;50.858;4.376;2022-11-04T03:24:41;10.00;99.90
39189;DHT22;24915;50.858;4.376;2022-11-04T03:34:51;10.10;99.90
39189;DHT22;24915;50.858;4.376;2022-11-04T03:37:17;10.10;99.90
39189;DHT22;24915;50.858;4.376;2022-11-04T03:39:43;10.10;99.90
39189;DHT22;24915;50.858;4.376;2022-11-04T03:42:10;10.10;99.90
39189;DHT22;24915;50.858;4.376;2022-11-04T03:44:48;10.10;99.90
39189;DHT22;24915;50.858;4.376;2022-11-04T03:47:15;10.10;99.90
39189;DHT22;24915;50.858;4.376;2022-11-04T03:49:42;10.10;99.90
39189;DHT22;24915;50.858;4.376;2022-11-04T03:52:08;10.20;99.90
39189;DHT22;24915;50.858;4.376;2022-11-04T03:54:34;10.10;99.90
39189;DHT22;24915;50.858;4.376;2022-11-04T04:02:40;10.20;99.90
39189;DHT22;24915;50.858;4.376;2022-11-04T04:05:22;10.20;99.90
39189;DHT22;24915;50.858;4.376;2022-11-04T04:08:41;10.20;99.90
39189;DHT22;24915;50.858;4.376;2022-11-04T04:16:37;10.30;99.90
39189;DHT22;24915;50.858;4.376;2022-11-04T04:19:07;10.30;99.90
39189;DHT22;24915;50.858;4.376;2022-11-04T04:21:42;10.30;99.90
39189;DHT22;24915;50.858;4.376;2022-11-04T04:24:11;10.30;99.90
39189;DHT22;24915;50.858;4.376;2022-11-04T04:26:57;10.30;99.90
39189;DHT22;24915;50.858;4.376;2022-11-04T04:29:43;10.30;99.90
39189;DHT22;24915;50.858;4.376;2022-11-04T04:32:09;10.30;99.90
39189;DHT22;24915;50.858;4.376;2022-11-04T04:34:36;10.30;99.90
39189;DHT22;24915;50.858;4.376;2022-11-04T04:37:11;10.30;99.90
39189;DHT22;24915;50.858;4.376;2022-11-04T04:39:52;10.30;99.90
39189;DHT22;24915;50.858;4.376;2022-11-04T04:42:38;10.40;99.90
39189;DHT22;24915;50.858;4.376;2022-11-04T04:45:32;10.40;99.90
39189;DHT22;24915;50.858;4.376;2022-11-04T04:47:58;10.40;99.90
39189;DHT22;24915;50.858;4.376;2022-11-04T04:50:27;10.40;99.90
39189;DHT22;24915;50.858;4.376;2022-11-04T04:52:56;10.40;99.90
39189;DHT22;24915;50.858;4.376;2022-11-04T04:55:22;10.40;99.90
39189;DHT22;24915;50.858;4.376;2022-11-04T04:57:48;10.40;99.90
39189;DHT22;24915;50.858;4.376;2022-11-04T05:00:16;10.40;99.90
39189;DHT22;24915;50.858;4.376;2022-11-04T05:02:42;10.40;99.90
39189;DHT22;24915;50.858;4.376;2022-11-04T05:05:09;10.50;99.90
39189;DHT22;24915;50.858;4.376;2022-11-04T05:07:35;10.50;99.90
39189;DHT22;24915;50.858;4.376;2022-11-04T05:10:01;10.50;99.90
39189;DHT22;24915;50.858;4.376;2022-11-04T05:12:26;10.50;99.90
39189;DHT22;24915;50.858;4.376;2022-11-04T05:15:12;10.50;99.90
39189;DHT22;24915;50.858;4.376;2022-11-04T05:17:38;10.50;99.90
39189;DHT22;24915;50.858;4.376;2022-11-04T05:20:04;10.50;99.90
39189;DHT22;24915;50.858;4.376;2022-11-04T05:22:29;10.50;99.90
39189;DHT22;24915;50.858;4.376;2022-11-04T05:24:55;10.50;99.90
39189;DHT22;24915;50.858;4.376;2022-11-04T05:27:20;10.50;99.90
39189;DHT22;24915;50.858;4.376;2022-11-04T05:29:46;10.50;99.90
39189;DHT22;24915;50.858;4.376;2022-11-04T05:32:12;10.50;99.90
39189;DHT22;24915;50.858;4.376;2022-11-04T05:34:37;10.50;99.90
39189;DHT22;24915;50.858;4.376;2022-11-04T05:37:03;10.50;99.90
39189;DHT22;24915;50.858;4.376;2022-11-04T05:39:28;10.50;99.90
39189;DHT22;24915;50.858;4.376;2022-11-04T05:41:54;10.50;99.90
39189;DHT22;24915;50.858;4.376;2022-11-04T05:44:20;10.50;99.90
39189;DHT22;24915;50.858;4.376;2022-11-04T05:46:45;10.50;99.90
39189;DHT22;24915;50.858;4.376;2022-11-04T05:49:11;10.50;99.90
39189;DHT22;24915;50.858;4.376;2022-11-04T05:51:37;10.40;99.90
39189;DHT22;24915;50.858;4.376;2022-11-04T05:54:02;10.40;99.90
39189;DHT22;24915;50.858;4.376;2022-11-04T05:56:28;10.40;99.90
39189;DHT22;24915;50.858;4.376;2022-11-04T05:58:54;10.50;99.90
39189;DHT22;24915;50.858;4.376;2022-11-04T06:01:34;10.40;99.90
39189;DHT22;24915;50.858;4.376;2022-11-04T06:04:02;10.40;99.90
39189;DHT22;24915;50.858;4.376;2022-11-04T06:06:30;10.40;99.90
39189;DHT22;24915;50.858;4.376;2022-11-04T06:08:57;10.40;99.90
39189;DHT22;24915;50.858;4.376;2022-11-04T06:11:24;10.40;99.90
39189;DHT22;24915;50.858;4.376;2022-11-04T06:13:50;10.40;99.90
39189;DHT22;24915;50.858;4.376;2022-11-04T06:16:16;10.40;99.90
39189;DHT22;24915;50.858;4.376;2022-11-04T06:18:41;10.40;99.90
39189;DHT22;24915;50.858;4.376;2022-11-04T06:23:40;10.40;99.90
39189;DHT22;24915;50.858;4.376;2022-11-04T06:26:06;10.40;99.90
39189;DHT22;24915;50.858;4.376;2022-11-04T06:28:32;10.50;99.90
39189;DHT22;24915;50.858;4.376;2022-11-04T06:30:59;10.50;99.90
39189;DHT22;24915;50.858;4.376;2022-11-04T06:33:25;10.50;99.90
39189;DHT22;24915;50.858;4.376;2022-11-04T06:35:50;10.50;99.90
39189;DHT22;24915;50.858;4.376;2022-11-04T06:38:16;10.50;99.90
39189;DHT22;24915;50.858;4.376;2022-11-04T06:40:42;10.50;99.90
39189;DHT22;24915;50.858;4.376;2022-11-04T06:43:07;10.50;99.90
39189;DHT22;24915;50.858;4.376;2022-11-04T06:45:33;10.50;99.90
39189;DHT22;24915;50.858;4.376;2022-11-04T06:47:59;10.50;99.90
39189;DHT22;24915;50.858;4.376;2022-11-04T06:50:24;10.50;99.90
39189;DHT22;24915;50.858;4.376;2022-11-04T06:52:50;10.50;99.90
39189;DHT22;24915;50.858;4.376;2022-11-04T06:55:15;10.50;99.90
39189;DHT22;24915;50.858;4.376;2022-11-04T06:57:41;10.50;99.90
39189;DHT22;24915;50.858;4.376;2022-11-04T07:00:07;10.60;99.90
39189;DHT22;24915;50.858;4.376;2022-11-04T07:02:33;10.60;99.90
39189;DHT22;24915;50.858;4.376;2022-11-04T07:04:58;10.60;99.90
39189;DHT22;24915;50.858;4.376;2022-11-04T07:07:24;10.60;99.90
39189;DHT22;24915;50.858;4.376;2022-11-04T07:09:50;10.70;99.90
39189;DHT22;24915;50.858;4.376;2022-11-04T07:12:15;10.70;99.90
39189;DHT22;24915;50.858;4.376;2022-11-04T07:14:41;10.70;99.90
39189;DHT22;24915;50.858;4.376;2022-11-04T07:17:07;10.70;99.90
39189;DHT22;24915;50.858;4.376;2022-11-04T07:19:33;10.80;99.90
39189;DHT22;24915;50.858;4.376;2022-11-04T07:21:58;10.80;99.90
39189;DHT22;24915;50.858;4.376;2022-11-04T07:24:24;10.80;99.90
39189;DHT22;24915;50.858;4.376;2022-11-04T07:26:49;10.80;99.90
39189;DHT22;24915;50.858;4.376;2022-11-04T07:29:15;10.80;99.90
39189;DHT22;24915;50.858;4.376;2022-11-04T07:31:42;10.90;99.90
39189;DHT22;24915;50.858;4.376;2022-11-04T07:34:08;10.90;99.90
39189;DHT22;24915;50.858;4.376;2022-11-04T07:36:33;10.90;99.90
39189;DHT22;24915;50.858;4.376;2022-11-04T07:38:59;10.90;99.90
39189;DHT22;24915;50.858;4.376;2022-11-04T07:41:26;11.00;99.90
39189;DHT22;24915;50.858;4.376;2022-11-04T07:43:52;10.90;99.90
39189;DHT22;24915;50.858;4.376;2022-11-04T07:46:19;11.00;99.90
39189;DHT22;24915;50.858;4.376;2022-11-04T07:48:46;11.00;99.90
39189;DHT22;24915;50.858;4.376;2022-11-04T07:51:14;11.00;99.90
39189;DHT22;24915;50.858;4.376;2022-11-04T07:53:41;11.00;99.90
39189;DHT22;24915;50.858;4.376;2022-11-04T07:56:09;11.00;99.90
39189;DHT22;24915;50.858;4.376;2022-11-04T07:58:39;11.00;99.90
39189;DHT22;24915;50.858;4.376;2022-11-04T08:01:07;11.10;99.90
39189;DHT22;24915;50.858;4.376;2022-11-04T08:03:34;11.10;99.90
39189;DHT22;24915;50.858;4.376;2022-11-04T08:06:03;11.10;99.90
39189;DHT22;24915;50.858;4.376;2022-11-04T08:08:29;11.10;99.90
39189;DHT22;24915;50.858;4.376;2022-11-04T08:11:06;11.20;99.90
39189;DHT22;24915;50.858;4.376;2022-11-04T08:13:34;11.20;99.90
39189;DHT22;24915;50.858;4.376;2022-11-04T08:16:02;11.20;99.90
39189;DHT22;24915;50.858;4.376;2022-11-04T08:18:29;11.20;99.90
39189;DHT22;24915;50.858;4.376;2022-11-04T08:20:55;11.20;99.90
39189;DHT22;24915;50.858;4.376;2022-11-04T08:23:20;11.30;99.90
39189;DHT22;24915;50.858;4.376;2022-11-04T08:25:46;11.30;99.90
39189;DHT22;24915;50.858;4.376;2022-11-04T08:28:12;11.30;99.90
39189;DHT22;24915;50.858;4.376;2022-11-04T08:33:19;11.30;99.90
39189;DHT22;24915;50.858;4.376;2022-11-04T08:35:45;11.30;99.90
39189;DHT22;24915;50.858;4.376;2022-11-04T08:38:11;11.30;99.90
39189;DHT22;24915;50.858;4.376;2022-11-04T08:40:37;11.30;99.90
39189;DHT22;24915;50.858;4.376;2022-11-04T08:43:02;11.30;99.90
39189;DHT22;24915;50.858;4.376;2022-11-04T08:45:28;11.40;99.90
39189;DHT22;24915;50.858;4.376;2022-11-04T08:47:54;11.40;99.90
39189;DHT22;24915;50.858;4.376;2022-11-04T08:50:19;11.40;99.90
39189;DHT22;24915;50.858;4.376;2022-11-04T08:52:48;11.40;99.90
39189;DHT22;24915;50.858;4.376;2022-11-04T08:55:13;11.40;99.90
39189;DHT22;24915;50.858;4.376;2022-11-04T08:57:39;11.50;99.90
39189;DHT22;24915;50.858;4.376;2022-11-04T09:00:05;11.50;99.90
39189;DHT22;24915;50.858;4.376;2022-11-04T09:02:31;11.50;99.90
39189;DHT22;24915;50.858;4.376;2022-11-04T09:04:56;11.60;99.90
39189;DHT22;24915;50.858;4.376;2022-11-04T09:07:22;11.60;99.90
39189;DHT22;24915;50.858;4.376;2022-11-04T09:09:48;11.70;99.90
39189;DHT22;24915;50.858;4.376;2022-11-04T09:12:13;11.70;99.90
39189;DHT22;24915;50.858;4.376;2022-11-04T09:14:39;11.70;99.90
39189;DHT22;24915;50.858;4.376;2022-11-04T09:17:05;11.80;99.90
39189;DHT22;24915;50.858;4.376;2022-11-04T09:19:30;11.90;99.90
39189;DHT22;24915;50.858;4.376;2022-11-04T09:21:57;11.90;99.90
39189;DHT22;24915;50.858;4.376;2022-11-04T09:24:22;11.90;99.90
39189;DHT22;24915;50.858;4.376;2022-11-04T09:26:48;12.00;99.90
39189;DHT22;24915;50.858;4.376;2022-11-04T09:29:13;12.00;99.90
39189;DHT22;24915;50.858;4.376;2022-11-04T09:31:39;12.10;99.90
39189;DHT22;24915;50.858;4.376;2022-11-04T09:34:05;12.20;99.90
39189;DHT22;24915;50.858;4.376;2022-11-04T09:36:30;12.20;99.90
39189;DHT22;24915;50.858;4.376;2022-11-04T09:38:56;12.20;99.90
39189;DHT22;24915;50.858;4.376;2022-11-04T09:44:20;12.40;99.90
39189;DHT22;24915;50.858;4.376;2022-11-04T09:46:48;12.50;99.90
39189;DHT22;24915;50.858;4.376;2022-11-04T09:49:15;12.50;99.90
39189;DHT22;24915;50.858;4.376;2022-11-04T09:51:42;12.60;99.90
39189;DHT22;24915;50.858;4.376;2022-11-04T09:54:21;12.60;99.90
39189;DHT22;24915;50.858;4.376;2022-11-04T09:56:49;12.70;99.90
39189;DHT22;24915;50.858;4.376;2022-11-04T09:59:20;12.80;99.90
39189;DHT22;24915;50.858;4.376;2022-11-04T10:10:09;13.00;99.90
39189;DHT22;24915;50.858;4.376;2022-11-04T10:12:58;13.00;99.90
39189;DHT22;24915;50.858;4.376;2022-11-04T10:15:42;13.00;99.90
39189;DHT22;24915;50.858;4.376;2022-11-04T10:29:14;12.90;99.90
39189;DHT22;24915;50.858;4.376;2022-11-04T10:31:42;12.90;99.90
39189;DHT22;24915;50.858;4.376;2022-11-04T10:36:48;12.90;99.90
39189;DHT22;24915;50.858;4.376;2022-11-04T10:39:26;12.90;99.90
39189;DHT22;24915;50.858;4.376;2022-11-04T10:41:52;12.90;99.90
39189;DHT22;24915;50.858;4.376;2022-11-04T10:44:31;12.90;99.90
39189;DHT22;24915;50.858;4.376;2022-11-04T10:50:13;12.90;99.90
39189;DHT22;24915;50.858;4.376;2022-11-04T10:52:41;13.00;99.90
39189;DHT22;24915;50.858;4.376;2022-11-04T10:55:36;13.00;99.90
39189;DHT22;24915;50.858;4.376;2022-11-04T10:58:00;12.90;99.90
39189;DHT22;24915;50.858;4.376;2022-11-04T11:00:52;12.90;99.90
39189;DHT22;24915;50.858;4.376;2022-11-04T11:03:38;12.90;99.90
39189;DHT22;24915;50.858;4.376;2022-11-04T11:08:40;12.90;99.90
39189;DHT22;24915;50.858;4.376;2022-11-04T11:11:07;12.90;99.90
39189;DHT22;24915;50.858;4.376;2022-11-04T11:13:39;12.90;99.90
39189;DHT22;24915;50.858;4.376;2022-11-04T11:18:33;12.90;99.90
39189;DHT22;24915;50.858;4.376;2022-11-04T11:21:14;12.90;99.90
39189;DHT22;24915;50.858;4.376;2022-11-04T11:23:45;12.80;99.90
39189;DHT22;24915;50.858;4.376;2022-11-04T11:26:20;12.80;99.90
39189;DHT22;24915;50.858;4.376;2022-11-04T11:28:54;12.90;99.90
39189;DHT22;24915;50.858;4.376;2022-11-04T11:31:38;12.90;99.90
39189;DHT22;24915;50.858;4.376;2022-11-04T11:34:30;13.00;99.90
39189;DHT22;24915;50.858;4.376;2022-11-04T11:36:57;13.10;99.90
39189;DHT22;24915;50.858;4.376;2022-11-04T11:39:27;13.30;99.90
39189;DHT22;24915;50.858;4.376;2022-11-04T11:42:10;13.50;99.90
39189;DHT22;24915;50.858;4.376;2022-11-04T11:44:40;13.70;99.90
39189;DHT22;24915;50.858;4.376;2022-11-04T11:52:43;14.20;99.90
39189;DHT22;24915;50.858;4.376;2022-11-04T11:55:33;14.30;99.90
39189;DHT22;24915;50.858;4.376;2022-11-04T11:58:16;14.40;99.90
39189;DHT22;24915;50.858;4.376;2022-11-04T12:00:59;14.40;99.90
39189;DHT22;24915;50.858;4.376;2022-11-04T12:03:32;14.40;99.90
39189;DHT22;24915;50.858;4.376;2022-11-04T12:06:25;14.40;99.90
39189;DHT22;24915;50.858;4.376;2022-11-04T12:17:09;14.30;99.90
39189;DHT22;24915;50.858;4.376;2022-11-04T12:19:58;14.30;99.90
39189;DHT22;24915;50.858;4.376;2022-11-04T12:25:27;14.40;99.90
39189;DHT22;24915;50.858;4.376;2022-11-04T12:30:36;14.60;99.90
39189;DHT22;24915;50.858;4.376;2022-11-04T12:33:36;14.60;99.90
39189;DHT22;24915;50.858;4.376;2022-11-04T12:47:31;14.20;99.90
39189;DHT22;24915;50.858;4.376;2022-11-04T13:01:30;14.10;99.90
39189;DHT22;24915;50.858;4.376;2022-11-04T13:04:11;14.10;99.90
39189;DHT22;24915;50.858;4.376;2022-11-04T13:06:46;14.20;99.90
39189;DHT22;24915;50.858;4.376;2022-11-04T13:09:54;14.30;99.90
39189;DHT22;24915;50.858;4.376;2022-11-04T13:12:24;14.20;99.90
39189;DHT22;24915;50.858;4.376;2022-11-04T13:15:02;14.20;99.90
39189;DHT22;24915;50.858;4.376;2022-11-04T13:17:32;14.10;99.90
39189;DHT22;24915;50.858;4.376;2022-11-04T13:22:33;14.00;99.90
39189;DHT22;24915;50.858;4.376;2022-11-04T13:27:45;13.80;99.90
39189;DHT22;24915;50.858;4.376;2022-11-04T13:36:55;13.70;99.90
39189;DHT22;24915;50.858;4.376;2022-11-04T13:39:27;13.80;99.90
39189;DHT22;24915;50.858;4.376;2022-11-04T13:42:11;13.80;99.90
39189;DHT22;24915;50.858;4.376;2022-11-04T13:44:47;13.90;99.90
39189;DHT22;24915;50.858;4.376;2022-11-04T13:47:18;14.00;99.90
39189;DHT22;24915;50.858;4.376;2022-11-04T13:49:49;14.10;99.90
39189;DHT22;24915;50.858;4.376;2022-11-04T13:52:16;14.10;99.90
39189;DHT22;24915;50.858;4.376;2022-11-04T13:54:50;14.00;99.90
39189;DHT22;24915;50.858;4.376;2022-11-04T13:57:30;13.90;99.90
39189;DHT22;24915;50.858;4.376;2022-11-04T14:18:34;13.50;99.90
39189;DHT22;24915;50.858;4.376;2022-11-04T14:21:14;13.50;99.90
39189;DHT22;24915;50.858;4.376;2022-11-04T14:23:42;13.50;99.90
39189;DHT22;24915;50.858;4.376;2022-11-04T14:26:17;13.50;99.90
39189;DHT22;24915;50.858;4.376;2022-11-04T14:28:46;13.50;99.90
39189;DHT22;24915;50.858;4.376;2022-11-04T14:31:13;13.40;99.90
39189;DHT22;24915;50.858;4.376;2022-11-04T14:33:58;13.30;99.90
39189;DHT22;24915;50.858;4.376;2022-11-04T14:36:25;13.10;99.90
39189;DHT22;24915;50.858;4.376;2022-11-04T14:41:29;12.90;99.90
39189;DHT22;24915;50.858;4.376;2022-11-04T14:43:58;12.70;99.90
39189;DHT22;24915;50.858;4.376;2022-11-04T14:46:28;12.70;99.90
39189;DHT22;24915;50.858;4.376;2022-11-04T14:48:56;12.60;99.90
39189;DHT22;24915;50.858;4.376;2022-11-04T14:51:27;12.60;99.90
39189;DHT22;24915;50.858;4.376;2022-11-04T14:56:30;12.50;99.90
39189;DHT22;24915;50.858;4.376;2022-11-04T14:58:59;12.50;99.90
39189;DHT22;24915;50.858;4.376;2022-11-04T15:01:27;12.50;99.90
39189;DHT22;24915;50.858;4.376;2022-11-04T15:03:55;12.40;99.90
39189;DHT22;24915;50.858;4.376;2022-11-04T15:06:26;12.40;99.90
39189;DHT22;24915;50.858;4.376;2022-11-04T15:08:52;12.40;99.90
39189;DHT22;24915;50.858;4.376;2022-11-04T15:11:27;12.40;99.90
39189;DHT22;24915;50.858;4.376;2022-11-04T15:14:21;12.30;99.90
39189;DHT22;24915;50.858;4.376;2022-11-04T15:16:52;12.30;99.90
39189;DHT22;24915;50.858;4.376;2022-11-04T15:19:39;12.30;99.90
39189;DHT22;24915;50.858;4.376;2022-11-04T15:22:05;12.30;99.90
39189;DHT22;24915;50.858;4.376;2022-11-04T15:24:32;12.20;99.90
39189;DHT22;24915;50.858;4.376;2022-11-04T15:27:04;12.20;99.90
39189;DHT22;24915;50.858;4.376;2022-11-04T15:29:30;12.10;99.90
39189;DHT22;24915;50.858;4.376;2022-11-04T15:32:01;12.10;99.90
39189;DHT22;24915;50.858;4.376;2022-11-04T15:34:28;12.60;99.90
39189;DHT22;24915;50.858;4.376;2022-11-04T15:37:00;13.20;99.90
39189;DHT22;24915;50.858;4.376;2022-11-04T15:39:35;13.30;99.90
39189;DHT22;24915;50.858;4.376;2022-11-04T15:42:05;13.20;99.90
39189;DHT22;24915;50.858;4.376;2022-11-04T15:44:52;13.00;99.90
39189;DHT22;24915;50.858;4.376;2022-11-04T15:49:49;12.50;99.90
39189;DHT22;24915;50.858;4.376;2022-11-04T15:52:23;12.30;99.90
39189;DHT22;24915;50.858;4.376;2022-11-04T15:54:54;12.20;99.90
39189;DHT22;24915;50.858;4.376;2022-11-04T15:57:37;12.10;99.90
39189;DHT22;24915;50.858;4.376;2022-11-04T16:02:45;11.90;99.90
39189;DHT22;24915;50.858;4.376;2022-11-04T16:07:42;11.80;99.90
39189;DHT22;24915;50.858;4.376;2022-11-04T16:18:06;11.70;99.90
39189;DHT22;24915;50.858;4.376;2022-11-04T16:20:44;11.70;99.90
39189;DHT22;24915;50.858;4.376;2022-11-04T16:23:17;11.70;99.90
39189;DHT22;24915;50.858;4.376;2022-11-04T16:25:44;11.70;99.90
39189;DHT22;24915;50.858;4.376;2022-11-04T16:28:21;11.70;99.90
39189;DHT22;24915;50.858;4.376;2022-11-04T16:31:01;11.70;99.90
39189;DHT22;24915;50.858;4.376;2022-11-04T16:33:27;11.60;99.90
39189;DHT22;24915;50.858;4.376;2022-11-04T16:35:53;11.60;99.90
39189;DHT22;24915;50.858;4.376;2022-11-04T16:38:18;11.60;99.90
39189;DHT22;24915;50.858;4.376;2022-11-04T16:40:46;11.60;99.90
39189;DHT22;24915;50.858;4.376;2022-11-04T16:43:15;11.60;99.90
39189;DHT22;24915;50.858;4.376;2022-11-04T16:45:45;11.60;99.90
39189;DHT22;24915;50.858;4.376;2022-11-04T16:48:18;11.60;99.90
39189;DHT22;24915;50.858;4.376;2022-11-04T16:50:45;11.60;99.90
39189;DHT22;24915;50.858;4.376;2022-11-04T16:53:11;11.60;99.90
39189;DHT22;24915;50.858;4.376;2022-11-04T16:55:42;11.60;99.90
39189;DHT22;24915;50.858;4.376;2022-11-04T16:58:18;11.60;99.90
39189;DHT22;24915;50.858;4.376;2022-11-04T17:00:43;11.60;99.90
39189;DHT22;24915;50.858;4.376;2022-11-04T17:03:18;11.50;99.90
39189;DHT22;24915;50.858;4.376;2022-11-04T17:05:51;11.60;99.90
39189;DHT22;24915;50.858;4.376;2022-11-04T17:08:18;11.50;99.90
39189;DHT22;24915;50.858;4.376;2022-11-04T17:10:44;11.50;99.90
39189;DHT22;24915;50.858;4.376;2022-11-04T17:13:10;11.50;99.90
39189;DHT22;24915;50.858;4.376;2022-11-04T17:15:36;11.40;99.90
39189;DHT22;24915;50.858;4.376;2022-11-04T17:18:01;11.40;99.90
39189;DHT22;24915;50.858;4.376;2022-11-04T17:20:27;11.40;99.90
39189;DHT22;24915;50.858;4.376;2022-11-04T17:22:54;11.30;99.90
39189;DHT22;24915;50.858;4.376;2022-11-04T17:25:23;11.30;99.90
39189;DHT22;24915;50.858;4.376;2022-11-04T17:27:48;11.30;99.90
39189;DHT22;24915;50.858;4.376;2022-11-04T17:30:15;11.30;99.90
39189;DHT22;24915;50.858;4.376;2022-11-04T17:32:42;11.20;99.90
39189;DHT22;24915;50.858;4.376;2022-11-04T17:35:09;11.20;99.90
39189;DHT22;24915;50.858;4.376;2022-11-04T17:37:36;11.20;99.90
39189;DHT22;24915;50.858;4.376;2022-11-04T17:40:02;11.10;99.90
39189;DHT22;24915;50.858;4.376;2022-11-04T17:42:28;11.10;99.90
39189;DHT22;24915;50.858;4.376;2022-11-04T17:45:12;11.10;99.90
39189;DHT22;24915;50.858;4.376;2022-11-04T17:47:38;11.00;99.90
39189;DHT22;24915;50.858;4.376;2022-11-04T17:50:04;11.00;99.90
39189;DHT22;24915;50.858;4.376;2022-11-04T17:52:33;11.00;99.90
39189;DHT22;24915;50.858;4.376;2022-11-04T17:54:58;11.00;99.90
39189;DHT22;24915;50.858;4.376;2022-11-04T17:57:24;10.90;99.90
39189;DHT22;24915;50.858;4.376;2022-11-04T17:59:50;10.90;99.90
39189;DHT22;24915;50.858;4.376;2022-11-04T18:02:15;10.90;99.90
39189;DHT22;24915;50.858;4.376;2022-11-04T18:04:41;10.90;99.90
39189;DHT22;24915;50.858;4.376;2022-11-04T18:07:06;10.80;99.90
39189;DHT22;24915;50.858;4.376;2022-11-04T18:09:32;10.80;99.90
39189;DHT22;24915;50.858;4.376;2022-11-04T18:12:02;10.80;99.90
39189;DHT22;24915;50.858;4.376;2022-11-04T18:14:47;10.80;99.90
39189;DHT22;24915;50.858;4.376;2022-11-04T18:17:13;10.70;99.90
39189;DHT22;24915;50.858;4.376;2022-11-04T18:19:39;10.70;99.90
39189;DHT22;24915;50.858;4.376;2022-11-04T18:22:04;10.70;99.90
39189;DHT22;24915;50.858;4.376;2022-11-04T18:24:30;10.70;99.90
39189;DHT22;24915;50.858;4.376;2022-11-04T18:26:57;10.60;99.90
39189;DHT22;24915;50.858;4.376;2022-11-04T18:29:24;10.60;99.90
39189;DHT22;24915;50.858;4.376;2022-11-04T18:31:49;10.60;99.90
39189;DHT22;24915;50.858;4.376;2022-11-04T18:34:17;10.60;99.90
39189;DHT22;24915;50.858;4.376;2022-11-04T18:36:44;10.50;99.90
39189;DHT22;24915;50.858;4.376;2022-11-04T18:39:13;10.50;99.90
39189;DHT22;24915;50.858;4.376;2022-11-04T18:41:39;10.50;99.90